sensor_id;sensor_type;location;lat;lon;timestamp;P1;durP1;ratioP1;P2;durP2;ratioP2
74904;SDS011;63465;50.862;6.220;2023-07-28T00:02:05;1.60;;;1.50;;
74904;SDS011;63465;50.862;6.220;2023-07-28T00:04:30;1.00;;;1.00;;
74904;SDS011;63465;50.862;6.220;2023-07-28T00:06:55;1.33;;;1.13;;
74904;SDS011;63465;50.862;6.220;2023-07-28T00:09:21;1.00;;;1.00;;
74904;SDS011;63465;50.862;6.220;2023-07-28T00:11:48;1.17;;;1.17;;
74904;SDS011;63465;50.862;6.220;2023-07-28T00:14:13;1.47;;;1.37;;
74904;SDS011;63465;50.862;6.220;2023-07-28T00:16:39;1.10;;;1.10;;
74904;SDS011;63465;50.862;6.220;2023-07-28T00:19:04;1.17;;;1.17;;
74904;SDS011;63465;50.862;6.220;2023-07-28T00:21:30;1.00;;;1.00;;
74904;SDS011;63465;50.862;6.220;2023-07-28T00:23:55;1.17;;;1.17;;
74904;SDS011;63465;50.862;6.220;2023-07-28T00:26:20;2.20;;;1.30;;
74904;SDS011;63465;50.862;6.220;2023-07-28T00:28:45;1.23;;;1.23;;
74904;SDS011;63465;50.862;6.220;2023-07-28T00:31:11;1.43;;;1.43;;
74904;SDS011;63465;50.862;6.220;2023-07-28T00:33:37;1.47;;;1.37;;
74904;SDS011;63465;50.862;6.220;2023-07-28T00:36:02;1.27;;;1.27;;
74904;SDS011;63465;50.862;6.220;2023-07-28T00:38:28;1.60;;;1.60;;
74904;SDS011;63465;50.862;6.220;2023-07-28T00:40:53;1.43;;;1.33;;
74904;SDS011;63465;50.862;6.220;2023-07-28T00:43:18;1.53;;;1.43;;
74904;SDS011;63465;50.862;6.220;2023-07-28T00:45:44;2.40;;;1.50;;
74904;SDS011;63465;50.862;6.220;2023-07-28T00:48:11;1.30;;;1.30;;
74904;SDS011;63465;50.862;6.220;2023-07-28T00:50:39;1.97;;;1.40;;
74904;SDS011;63465;50.862;6.220;2023-07-28T00:53:06;4.20;;;1.70;;
74904;SDS011;63465;50.862;6.220;2023-07-28T00:55:32;1.67;;;1.57;;
74904;SDS011;63465;50.862;6.220;2023-07-28T00:57:57;1.67;;;1.57;;
74904;SDS011;63465;50.862;6.220;2023-07-28T01:00:23;2.10;;;2.00;;
74904;SDS011;63465;50.862;6.220;2023-07-28T01:02:49;2.90;;;2.10;;
74904;SDS011;63465;50.862;6.220;2023-07-28T01:05:14;2.27;;;2.03;;
74904;SDS011;63465;50.862;6.220;2023-07-28T01:07:53;2.10;;;1.90;;
74904;SDS011;63465;50.862;6.220;2023-07-28T01:10:31;1.77;;;1.77;;
74904;SDS011;63465;50.862;6.220;2023-07-28T01:12:57;1.90;;;1.80;;
74904;SDS011;63465;50.862;6.220;2023-07-28T01:15:23;1.50;;;1.47;;
74904;SDS011;63465;50.862;6.220;2023-07-28T01:17:48;1.60;;;1.60;;
74904;SDS011;63465;50.862;6.220;2023-07-28T01:20:14;1.63;;;1.50;;
74904;SDS011;63465;50.862;6.220;2023-07-28T01:28:09;1.80;;;1.70;;
74904;SDS011;63465;50.862;6.220;2023-07-28T01:30:37;2.20;;;1.63;;
74904;SDS011;63465;50.862;6.220;2023-07-28T01:33:05;1.53;;;1.40;;
74904;SDS011;63465;50.862;6.220;2023-07-28T01:35:32;2.13;;;1.90;;
74904;SDS011;63465;50.862;6.220;2023-07-28T01:37:57;9.80;;;1.80;;
74904;SDS011;63465;50.862;6.220;2023-07-28T01:40:23;1.47;;;1.47;;
74904;SDS011;63465;50.862;6.220;2023-07-28T01:42:48;1.87;;;1.83;;
74904;SDS011;63465;50.862;6.220;2023-07-28T01:45:13;1.63;;;1.63;;
74904;SDS011;63465;50.862;6.220;2023-07-28T01:47:39;1.70;;;1.60;;
74904;SDS011;63465;50.862;6.220;2023-07-28T01:50:04;2.90;;;1.83;;
74904;SDS011;63465;50.862;6.220;2023-07-28T01:52:30;2.00;;;1.60;;
74904;SDS011;63465;50.862;6.220;2023-07-28T01:54:55;1.80;;;1.70;;
74904;SDS011;63465;50.862;6.220;2023-07-28T01:57:20;2.73;;;2.53;;
74904;SDS011;63465;50.862;6.220;2023-07-28T01:59:46;2.17;;;1.97;;
74904;SDS011;63465;50.862;6.220;2023-07-28T02:02:11;2.27;;;2.17;;
74904;SDS011;63465;50.862;6.220;2023-07-28T02:04:36;6.20;;;2.50;;
74904;SDS011;63465;50.862;6.220;2023-07-28T02:07:02;2.43;;;2.20;;
74904;SDS011;63465;50.862;6.220;2023-07-28T02:09:27;1.80;;;1.70;;
74904;SDS011;63465;50.862;6.220;2023-07-28T02:11:52;2.60;;;2.50;;
74904;SDS011;63465;50.862;6.220;2023-07-28T02:14:18;4.93;;;2.50;;
74904;SDS011;63465;50.862;6.220;2023-07-28T02:16:44;4.03;;;2.70;;
74904;SDS011;63465;50.862;6.220;2023-07-28T02:19:09;4.07;;;2.40;;
74904;SDS011;63465;50.862;6.220;2023-07-28T02:21:34;3.37;;;2.57;;
74904;SDS011;63465;50.862;6.220;2023-07-28T02:24:00;3.20;;;3.00;;
74904;SDS011;63465;50.862;6.220;2023-07-28T02:26:25;3.40;;;2.80;;
74904;SDS011;63465;50.862;6.220;2023-07-28T02:28:51;6.70;;;3.27;;
74904;SDS011;63465;50.862;6.220;2023-07-28T02:31:16;3.80;;;2.73;;
74904;SDS011;63465;50.862;6.220;2023-07-28T02:33:41;3.90;;;2.40;;
74904;SDS011;63465;50.862;6.220;2023-07-28T02:36:07;3.10;;;2.90;;
74904;SDS011;63465;50.862;6.220;2023-07-28T02:38:32;5.00;;;3.00;;
74904;SDS011;63465;50.862;6.220;2023-07-28T02:40:57;3.80;;;2.90;;
74904;SDS011;63465;50.862;6.220;2023-07-28T02:43:22;4.60;;;3.70;;
74904;SDS011;63465;50.862;6.220;2023-07-28T02:45:57;7.37;;;3.00;;
74904;SDS011;63465;50.862;6.220;2023-07-28T02:48:23;3.27;;;3.07;;
74904;SDS011;63465;50.862;6.220;2023-07-28T02:50:49;3.20;;;2.93;;
74904;SDS011;63465;50.862;6.220;2023-07-28T02:53:15;3.03;;;2.67;;
74904;SDS011;63465;50.862;6.220;2023-07-28T02:55:44;3.20;;;2.83;;
74904;SDS011;63465;50.862;6.220;2023-07-28T02:58:10;2.80;;;2.50;;
74904;SDS011;63465;50.862;6.220;2023-07-28T03:00:40;2.70;;;2.50;;
74904;SDS011;63465;50.862;6.220;2023-07-28T03:03:06;2.60;;;2.40;;
74904;SDS011;63465;50.862;6.220;2023-07-28T03:05:35;3.00;;;2.63;;
74904;SDS011;63465;50.862;6.220;2023-07-28T03:08:01;2.90;;;2.67;;
74904;SDS011;63465;50.862;6.220;2023-07-28T03:10:26;2.53;;;2.43;;
74904;SDS011;63465;50.862;6.220;2023-07-28T03:12:51;2.77;;;2.50;;
74904;SDS011;63465;50.862;6.220;2023-07-28T03:15:17;4.87;;;2.70;;
74904;SDS011;63465;50.862;6.220;2023-07-28T03:17:42;2.40;;;2.30;;
74904;SDS011;63465;50.862;6.220;2023-07-28T03:20:07;4.20;;;2.30;;
74904;SDS011;63465;50.862;6.220;2023-07-28T03:22:33;2.40;;;2.20;;
74904;SDS011;63465;50.862;6.220;2023-07-28T03:24:59;2.10;;;2.00;;
74904;SDS011;63465;50.862;6.220;2023-07-28T03:27:24;2.07;;;1.97;;
74904;SDS011;63465;50.862;6.220;2023-07-28T03:29:49;2.10;;;2.00;;
74904;SDS011;63465;50.862;6.220;2023-07-28T03:32:15;3.27;;;2.03;;
74904;SDS011;63465;50.862;6.220;2023-07-28T03:34:41;2.17;;;1.97;;
74904;SDS011;63465;50.862;6.220;2023-07-28T03:37:06;1.87;;;1.77;;
74904;SDS011;63465;50.862;6.220;2023-07-28T03:39:31;2.63;;;1.80;;
74904;SDS011;63465;50.862;6.220;2023-07-28T03:41:57;1.90;;;1.80;;
74904;SDS011;63465;50.862;6.220;2023-07-28T03:44:22;1.80;;;1.70;;
74904;SDS011;63465;50.862;6.220;2023-07-28T03:46:48;2.77;;;1.90;;
74904;SDS011;63465;50.862;6.220;2023-07-28T03:49:14;2.13;;;1.30;;
74904;SDS011;63465;50.862;6.220;2023-07-28T03:51:39;3.47;;;1.37;;
74904;SDS011;63465;50.862;6.220;2023-07-28T03:54:04;1.83;;;1.60;;
74904;SDS011;63465;50.862;6.220;2023-07-28T03:56:30;1.30;;;1.30;;
74904;SDS011;63465;50.862;6.220;2023-07-28T03:58:55;1.50;;;1.13;;
74904;SDS011;63465;50.862;6.220;2023-07-28T04:01:20;2.60;;;1.60;;
74904;SDS011;63465;50.862;6.220;2023-07-28T04:03:47;1.00;;;1.00;;
74904;SDS011;63465;50.862;6.220;2023-07-28T04:06:12;1.27;;;1.27;;
74904;SDS011;63465;50.862;6.220;2023-07-28T04:08:38;0.97;;;0.97;;
74904;SDS011;63465;50.862;6.220;2023-07-28T04:11:04;1.47;;;1.47;;
74904;SDS011;63465;50.862;6.220;2023-07-28T04:13:29;1.60;;;1.50;;
74904;SDS011;63465;50.862;6.220;2023-07-28T04:15:54;1.40;;;1.30;;
74904;SDS011;63465;50.862;6.220;2023-07-28T04:18:20;2.47;;;2.30;;
74904;SDS011;63465;50.862;6.220;2023-07-28T04:20:45;1.60;;;1.50;;
74904;SDS011;63465;50.862;6.220;2023-07-28T04:23:11;1.60;;;1.50;;
74904;SDS011;63465;50.862;6.220;2023-07-28T04:25:36;1.33;;;1.33;;
74904;SDS011;63465;50.862;6.220;2023-07-28T04:28:02;1.47;;;1.37;;
74904;SDS011;63465;50.862;6.220;2023-07-28T04:30:27;1.77;;;1.70;;
74904;SDS011;63465;50.862;6.220;2023-07-28T04:32:52;1.50;;;1.40;;
74904;SDS011;63465;50.862;6.220;2023-07-28T04:35:18;1.20;;;1.20;;
74904;SDS011;63465;50.862;6.220;2023-07-28T04:37:43;1.47;;;1.37;;
74904;SDS011;63465;50.862;6.220;2023-07-28T04:40:08;1.73;;;1.63;;
74904;SDS011;63465;50.862;6.220;2023-07-28T04:42:34;1.43;;;1.33;;
74904;SDS011;63465;50.862;6.220;2023-07-28T04:45:01;1.50;;;1.50;;
74904;SDS011;63465;50.862;6.220;2023-07-28T04:47:26;1.37;;;1.37;;
74904;SDS011;63465;50.862;6.220;2023-07-28T04:49:51;1.33;;;1.33;;
74904;SDS011;63465;50.862;6.220;2023-07-28T04:52:16;1.47;;;1.47;;
74904;SDS011;63465;50.862;6.220;2023-07-28T04:54:42;2.10;;;1.43;;
74904;SDS011;63465;50.862;6.220;2023-07-28T04:57:07;1.90;;;1.80;;
74904;SDS011;63465;50.862;6.220;2023-07-28T04:59:32;1.90;;;1.80;;
74904;SDS011;63465;50.862;6.220;2023-07-28T05:01:58;1.77;;;1.60;;
74904;SDS011;63465;50.862;6.220;2023-07-28T05:04:23;1.63;;;1.53;;
74904;SDS011;63465;50.862;6.220;2023-07-28T05:06:48;1.97;;;1.80;;
74904;SDS011;63465;50.862;6.220;2023-07-28T05:09:13;1.63;;;1.57;;
74904;SDS011;63465;50.862;6.220;2023-07-28T05:11:39;3.73;;;1.80;;
74904;SDS011;63465;50.862;6.220;2023-07-28T05:14:04;2.10;;;2.00;;
74904;SDS011;63465;50.862;6.220;2023-07-28T05:16:31;2.37;;;2.13;;
74904;SDS011;63465;50.862;6.220;2023-07-28T05:18:57;1.93;;;1.83;;
74904;SDS011;63465;50.862;6.220;2023-07-28T05:21:22;2.83;;;2.13;;
74904;SDS011;63465;50.862;6.220;2023-07-28T05:23:47;2.43;;;2.23;;
74904;SDS011;63465;50.862;6.220;2023-07-28T05:26:13;2.23;;;2.13;;
74904;SDS011;63465;50.862;6.220;2023-07-28T05:28:38;3.10;;;2.67;;
74904;SDS011;63465;50.862;6.220;2023-07-28T05:31:04;2.90;;;2.70;;
74904;SDS011;63465;50.862;6.220;2023-07-28T05:33:30;2.97;;;2.77;;
74904;SDS011;63465;50.862;6.220;2023-07-28T05:35:59;2.60;;;2.40;;
74904;SDS011;63465;50.862;6.220;2023-07-28T05:38:25;2.87;;;2.67;;
74904;SDS011;63465;50.862;6.220;2023-07-28T05:40:57;8.80;;;3.97;;
74904;SDS011;63465;50.862;6.220;2023-07-28T05:43:25;3.87;;;3.00;;
74904;SDS011;63465;50.862;6.220;2023-07-28T05:45:50;5.77;;;3.70;;
74904;SDS011;63465;50.862;6.220;2023-07-28T05:48:16;5.20;;;3.70;;
74904;SDS011;63465;50.862;6.220;2023-07-28T05:50:41;4.10;;;3.60;;
74904;SDS011;63465;50.862;6.220;2023-07-28T05:53:06;5.43;;;4.20;;
74904;SDS011;63465;50.862;6.220;2023-07-28T05:55:32;4.27;;;3.80;;
74904;SDS011;63465;50.862;6.220;2023-07-28T05:57:58;4.33;;;3.97;;
74904;SDS011;63465;50.862;6.220;2023-07-28T06:00:23;4.70;;;3.90;;
74904;SDS011;63465;50.862;6.220;2023-07-28T06:02:48;9.07;;;4.03;;
74904;SDS011;63465;50.862;6.220;2023-07-28T06:05:14;10.60;;;4.10;;
74904;SDS011;63465;50.862;6.220;2023-07-28T06:07:40;4.70;;;4.10;;
74904;SDS011;63465;50.862;6.220;2023-07-28T06:10:06;4.23;;;3.90;;
74904;SDS011;63465;50.862;6.220;2023-07-28T06:12:32;4.73;;;4.27;;
74904;SDS011;63465;50.862;6.220;2023-07-28T06:14:57;4.07;;;3.77;;
74904;SDS011;63465;50.862;6.220;2023-07-28T06:17:22;4.33;;;3.90;;
74904;SDS011;63465;50.862;6.220;2023-07-28T06:19:47;3.73;;;3.40;;
74904;SDS011;63465;50.862;6.220;2023-07-28T06:22:13;3.47;;;3.17;;
74904;SDS011;63465;50.862;6.220;2023-07-28T06:24:38;3.30;;;3.10;;
74904;SDS011;63465;50.862;6.220;2023-07-28T06:27:03;3.37;;;2.90;;
74904;SDS011;63465;50.862;6.220;2023-07-28T06:29:33;2.80;;;2.60;;
74904;SDS011;63465;50.862;6.220;2023-07-28T06:31:58;3.30;;;3.03;;
74904;SDS011;63465;50.862;6.220;2023-07-28T06:34:24;3.50;;;3.20;;
74904;SDS011;63465;50.862;6.220;2023-07-28T06:36:49;5.07;;;2.87;;
74904;SDS011;63465;50.862;6.220;2023-07-28T06:39:14;8.33;;;2.80;;
74904;SDS011;63465;50.862;6.220;2023-07-28T06:41:40;3.43;;;2.97;;
74904;SDS011;63465;50.862;6.220;2023-07-28T06:44:05;3.37;;;3.07;;
74904;SDS011;63465;50.862;6.220;2023-07-28T06:46:30;3.33;;;3.03;;
74904;SDS011;63465;50.862;6.220;2023-07-28T06:48:56;2.50;;;2.37;;
74904;SDS011;63465;50.862;6.220;2023-07-28T06:51:21;2.63;;;2.43;;
74904;SDS011;63465;50.862;6.220;2023-07-28T06:53:46;3.00;;;2.70;;
74904;SDS011;63465;50.862;6.220;2023-07-28T06:56:12;2.47;;;2.30;;
74904;SDS011;63465;50.862;6.220;2023-07-28T06:58:37;2.70;;;2.50;;
74904;SDS011;63465;50.862;6.220;2023-07-28T07:01:02;3.73;;;2.50;;
74904;SDS011;63465;50.862;6.220;2023-07-28T07:03:28;3.50;;;2.90;;
74904;SDS011;63465;50.862;6.220;2023-07-28T07:05:53;2.60;;;2.50;;
74904;SDS011;63465;50.862;6.220;2023-07-28T07:08:18;2.20;;;2.10;;
74904;SDS011;63465;50.862;6.220;2023-07-28T07:10:47;2.13;;;1.97;;
74904;SDS011;63465;50.862;6.220;2023-07-28T07:13:15;4.20;;;2.30;;
74904;SDS011;63465;50.862;6.220;2023-07-28T07:15:40;2.60;;;2.20;;
74904;SDS011;63465;50.862;6.220;2023-07-28T07:18:07;2.80;;;2.60;;
74904;SDS011;63465;50.862;6.220;2023-07-28T07:20:35;2.23;;;2.13;;
74904;SDS011;63465;50.862;6.220;2023-07-28T07:23:01;3.53;;;2.07;;
74904;SDS011;63465;50.862;6.220;2023-07-28T07:25:27;2.80;;;2.60;;
74904;SDS011;63465;50.862;6.220;2023-07-28T07:27:52;2.27;;;2.10;;
74904;SDS011;63465;50.862;6.220;2023-07-28T07:30:17;1.90;;;1.80;;
74904;SDS011;63465;50.862;6.220;2023-07-28T07:32:43;2.23;;;2.13;;
74904;SDS011;63465;50.862;6.220;2023-07-28T07:35:08;2.20;;;2.10;;
74904;SDS011;63465;50.862;6.220;2023-07-28T07:37:34;2.10;;;1.70;;
74904;SDS011;63465;50.862;6.220;2023-07-28T07:39:59;1.80;;;1.70;;
74904;SDS011;63465;50.862;6.220;2023-07-28T07:42:26;1.83;;;1.73;;
74904;SDS011;63465;50.862;6.220;2023-07-28T07:44:52;2.30;;;1.70;;
74904;SDS011;63465;50.862;6.220;2023-07-28T07:47:17;1.70;;;1.60;;
74904;SDS011;63465;50.862;6.220;2023-07-28T07:49:43;1.80;;;1.70;;
74904;SDS011;63465;50.862;6.220;2023-07-28T07:52:08;2.20;;;1.53;;
74904;SDS011;63465;50.862;6.220;2023-07-28T07:54:34;1.40;;;1.30;;
74904;SDS011;63465;50.862;6.220;2023-07-28T07:57:00;1.70;;;1.60;;
74904;SDS011;63465;50.862;6.220;2023-07-28T07:59:26;4.73;;;1.33;;
74904;SDS011;63465;50.862;6.220;2023-07-28T08:01:55;2.37;;;1.50;;
74904;SDS011;63465;50.862;6.220;2023-07-28T08:04:21;1.60;;;1.50;;
74904;SDS011;63465;50.862;6.220;2023-07-28T08:06:46;1.20;;;1.10;;
74904;SDS011;63465;50.862;6.220;2023-07-28T08:09:12;1.30;;;1.30;;
74904;SDS011;63465;50.862;6.220;2023-07-28T08:11:39;1.20;;;1.20;;
74904;SDS011;63465;50.862;6.220;2023-07-28T08:14:04;1.10;;;1.10;;
74904;SDS011;63465;50.862;6.220;2023-07-28T08:16:29;1.37;;;1.10;;
74904;SDS011;63465;50.862;6.220;2023-07-28T08:18:55;1.10;;;1.10;;
74904;SDS011;63465;50.862;6.220;2023-07-28T08:21:20;1.80;;;1.20;;
74904;SDS011;63465;50.862;6.220;2023-07-28T08:23:45;2.10;;;1.23;;
74904;SDS011;63465;50.862;6.220;2023-07-28T08:26:11;1.30;;;1.20;;
74904;SDS011;63465;50.862;6.220;2023-07-28T08:28:36;0.87;;;0.87;;
74904;SDS011;63465;50.862;6.220;2023-07-28T08:31:01;0.90;;;0.90;;
74904;SDS011;63465;50.862;6.220;2023-07-28T08:33:28;1.23;;;1.00;;
74904;SDS011;63465;50.862;6.220;2023-07-28T08:35:54;0.90;;;0.90;;
74904;SDS011;63465;50.862;6.220;2023-07-28T08:38:19;0.80;;;0.80;;
74904;SDS011;63465;50.862;6.220;2023-07-28T08:40:44;1.13;;;1.13;;
74904;SDS011;63465;50.862;6.220;2023-07-28T08:43:10;1.80;;;1.10;;
74904;SDS011;63465;50.862;6.220;2023-07-28T08:45:35;3.80;;;1.03;;
74904;SDS011;63465;50.862;6.220;2023-07-28T08:48:01;1.00;;;1.00;;
74904;SDS011;63465;50.862;6.220;2023-07-28T08:50:26;1.17;;;1.17;;
74904;SDS011;63465;50.862;6.220;2023-07-28T08:52:51;1.17;;;1.17;;
74904;SDS011;63465;50.862;6.220;2023-07-28T08:55:17;1.13;;;1.13;;
74904;SDS011;63465;50.862;6.220;2023-07-28T08:57:42;0.87;;;0.87;;
74904;SDS011;63465;50.862;6.220;2023-07-28T09:00:11;1.53;;;1.43;;
74904;SDS011;63465;50.862;6.220;2023-07-28T09:02:39;1.10;;;1.10;;
74904;SDS011;63465;50.862;6.220;2023-07-28T09:05:05;1.00;;;1.00;;
74904;SDS011;63465;50.862;6.220;2023-07-28T09:07:34;1.63;;;1.30;;
74904;SDS011;63465;50.862;6.220;2023-07-28T09:10:01;1.03;;;1.00;;
74904;SDS011;63465;50.862;6.220;2023-07-28T09:12:27;1.43;;;1.40;;
74904;SDS011;63465;50.862;6.220;2023-07-28T09:14:56;1.00;;;0.90;;
74904;SDS011;63465;50.862;6.220;2023-07-28T09:17:21;2.03;;;1.17;;
74904;SDS011;63465;50.862;6.220;2023-07-28T09:19:53;1.03;;;1.00;;
74904;SDS011;63465;50.862;6.220;2023-07-28T09:22:19;1.47;;;1.00;;
74904;SDS011;63465;50.862;6.220;2023-07-28T09:24:45;2.20;;;0.90;;
74904;SDS011;63465;50.862;6.220;2023-07-28T09:27:22;1.00;;;1.00;;
74904;SDS011;63465;50.862;6.220;2023-07-28T09:29:51;1.10;;;1.10;;
74904;SDS011;63465;50.862;6.220;2023-07-28T09:32:26;0.87;;;0.87;;
74904;SDS011;63465;50.862;6.220;2023-07-28T09:35:05;3.13;;;1.10;;
74904;SDS011;63465;50.862;6.220;2023-07-28T09:37:32;0.80;;;0.80;;
74904;SDS011;63465;50.862;6.220;2023-07-28T09:39:59;0.87;;;0.87;;
74904;SDS011;63465;50.862;6.220;2023-07-28T09:42:29;1.10;;;1.00;;
74904;SDS011;63465;50.862;6.220;2023-07-28T09:44:55;0.90;;;0.90;;
74904;SDS011;63465;50.862;6.220;2023-07-28T09:47:20;1.17;;;1.07;;
74904;SDS011;63465;50.862;6.220;2023-07-28T09:49:46;2.20;;;1.13;;
74904;SDS011;63465;50.862;6.220;2023-07-28T09:52:15;3.80;;;0.90;;
74904;SDS011;63465;50.862;6.220;2023-07-28T09:54:43;0.90;;;0.90;;
74904;SDS011;63465;50.862;6.220;2023-07-28T09:57:14;0.80;;;0.80;;
74904;SDS011;63465;50.862;6.220;2023-07-28T09:59:45;1.20;;;0.83;;
74904;SDS011;63465;50.862;6.220;2023-07-28T10:02:11;1.77;;;1.10;;
74904;SDS011;63465;50.862;6.220;2023-07-28T10:04:37;1.07;;;0.97;;
74904;SDS011;63465;50.862;6.220;2023-07-28T10:07:04;1.00;;;1.00;;
74904;SDS011;63465;50.862;6.220;2023-07-28T10:09:30;2.30;;;0.90;;
74904;SDS011;63465;50.862;6.220;2023-07-28T10:11:58;1.70;;;1.10;;
74904;SDS011;63465;50.862;6.220;2023-07-28T10:14:25;2.80;;;0.80;;
74904;SDS011;63465;50.862;6.220;2023-07-28T10:16:56;1.20;;;0.90;;
74904;SDS011;63465;50.862;6.220;2023-07-28T10:19:27;2.30;;;0.90;;
74904;SDS011;63465;50.862;6.220;2023-07-28T10:22:02;4.97;;;0.90;;
74904;SDS011;63465;50.862;6.220;2023-07-28T10:24:51;1.10;;;0.80;;
74904;SDS011;63465;50.862;6.220;2023-07-28T10:27:40;2.50;;;0.90;;
74904;SDS011;63465;50.862;6.220;2023-07-28T10:30:10;0.73;;;0.73;;
74904;SDS011;63465;50.862;6.220;2023-07-28T10:32:44;0.80;;;0.80;;
74904;SDS011;63465;50.862;6.220;2023-07-28T10:37:38;0.80;;;0.80;;
74904;SDS011;63465;50.862;6.220;2023-07-28T10:42:51;2.00;;;0.87;;
74904;SDS011;63465;50.862;6.220;2023-07-28T10:45:17;1.27;;;1.20;;
74904;SDS011;63465;50.862;6.220;2023-07-28T10:47:43;1.10;;;1.10;;
74904;SDS011;63465;50.862;6.220;2023-07-28T10:50:09;2.23;;;1.20;;
74904;SDS011;63465;50.862;6.220;2023-07-28T10:52:44;1.23;;;1.23;;
74904;SDS011;63465;50.862;6.220;2023-07-28T10:55:14;0.90;;;0.90;;
74904;SDS011;63465;50.862;6.220;2023-07-28T10:57:44;2.30;;;1.00;;
74904;SDS011;63465;50.862;6.220;2023-07-28T11:00:11;2.00;;;1.00;;
74904;SDS011;63465;50.862;6.220;2023-07-28T11:02:58;1.30;;;1.30;;
74904;SDS011;63465;50.862;6.220;2023-07-28T11:05:29;1.10;;;1.03;;
74904;SDS011;63465;50.862;6.220;2023-07-28T11:07:56;1.33;;;0.90;;
74904;SDS011;63465;50.862;6.220;2023-07-28T11:10:23;1.43;;;1.00;;
74904;SDS011;63465;50.862;6.220;2023-07-28T11:12:50;1.40;;;1.30;;
74904;SDS011;63465;50.862;6.220;2023-07-28T11:15:16;1.00;;;1.00;;
74904;SDS011;63465;50.862;6.220;2023-07-28T11:17:44;1.00;;;0.90;;
74904;SDS011;63465;50.862;6.220;2023-07-28T11:22:39;1.10;;;1.10;;
74904;SDS011;63465;50.862;6.220;2023-07-28T11:25:05;1.33;;;1.23;;
74904;SDS011;63465;50.862;6.220;2023-07-28T11:27:34;1.30;;;1.20;;
74904;SDS011;63465;50.862;6.220;2023-07-28T11:30:00;1.00;;;1.00;;
74904;SDS011;63465;50.862;6.220;2023-07-28T11:32:26;2.73;;;1.20;;
74904;SDS011;63465;50.862;6.220;2023-07-28T11:34:51;0.90;;;0.90;;
74904;SDS011;63465;50.862;6.220;2023-07-28T11:37:16;1.10;;;1.00;;
74904;SDS011;63465;50.862;6.220;2023-07-28T11:39:43;2.97;;;1.20;;
74904;SDS011;63465;50.862;6.220;2023-07-28T11:42:08;2.60;;;1.43;;
74904;SDS011;63465;50.862;6.220;2023-07-28T11:44:34;7.43;;;1.60;;
74904;SDS011;63465;50.862;6.220;2023-07-28T11:47:00;1.20;;;1.20;;
74904;SDS011;63465;50.862;6.220;2023-07-28T11:49:30;1.87;;;1.27;;
74904;SDS011;63465;50.862;6.220;2023-07-28T11:51:56;1.30;;;1.20;;
74904;SDS011;63465;50.862;6.220;2023-07-28T11:54:24;1.37;;;1.30;;
74904;SDS011;63465;50.862;6.220;2023-07-28T11:56:51;2.80;;;1.60;;
74904;SDS011;63465;50.862;6.220;2023-07-28T11:59:20;1.27;;;1.17;;
74904;SDS011;63465;50.862;6.220;2023-07-28T12:04:18;0.93;;;0.93;;
74904;SDS011;63465;50.862;6.220;2023-07-28T12:07:04;1.10;;;1.10;;
74904;SDS011;63465;50.862;6.220;2023-07-28T12:12:11;1.53;;;1.23;;
74904;SDS011;63465;50.862;6.220;2023-07-28T12:14:46;1.10;;;1.10;;
74904;SDS011;63465;50.862;6.220;2023-07-28T12:17:15;1.10;;;1.10;;
74904;SDS011;63465;50.862;6.220;2023-07-28T12:22:25;0.77;;;0.77;;
74904;SDS011;63465;50.862;6.220;2023-07-28T12:24:51;0.80;;;0.80;;
74904;SDS011;63465;50.862;6.220;2023-07-28T12:27:17;0.93;;;0.93;;
74904;SDS011;63465;50.862;6.220;2023-07-28T12:29:42;0.93;;;0.93;;
74904;SDS011;63465;50.862;6.220;2023-07-28T12:32:08;1.00;;;0.83;;
74904;SDS011;63465;50.862;6.220;2023-07-28T12:34:33;0.83;;;0.83;;
74904;SDS011;63465;50.862;6.220;2023-07-28T12:36:59;0.70;;;0.70;;
74904;SDS011;63465;50.862;6.220;2023-07-28T12:39:24;0.80;;;0.80;;
74904;SDS011;63465;50.862;6.220;2023-07-28T12:41:49;0.83;;;0.80;;
74904;SDS011;63465;50.862;6.220;2023-07-28T12:44:16;0.90;;;0.90;;
74904;SDS011;63465;50.862;6.220;2023-07-28T12:46:44;0.93;;;0.93;;
74904;SDS011;63465;50.862;6.220;2023-07-28T12:49:09;0.70;;;0.70;;
74904;SDS011;63465;50.862;6.220;2023-07-28T12:51:35;1.87;;;0.87;;
74904;SDS011;63465;50.862;6.220;2023-07-28T12:54:00;0.90;;;0.90;;
74904;SDS011;63465;50.862;6.220;2023-07-28T12:56:25;0.80;;;0.80;;
74904;SDS011;63465;50.862;6.220;2023-07-28T12:58:51;0.97;;;0.90;;
74904;SDS011;63465;50.862;6.220;2023-07-28T13:01:16;0.80;;;0.80;;
74904;SDS011;63465;50.862;6.220;2023-07-28T13:03:41;0.70;;;0.70;;
74904;SDS011;63465;50.862;6.220;2023-07-28T13:06:06;0.70;;;0.70;;
74904;SDS011;63465;50.862;6.220;2023-07-28T13:08:32;0.60;;;0.60;;
74904;SDS011;63465;50.862;6.220;2023-07-28T13:10:57;0.70;;;0.70;;
74904;SDS011;63465;50.862;6.220;2023-07-28T13:13:22;0.60;;;0.60;;
74904;SDS011;63465;50.862;6.220;2023-07-28T13:15:48;0.90;;;0.70;;
74904;SDS011;63465;50.862;6.220;2023-07-28T13:18:13;0.70;;;0.70;;
74904;SDS011;63465;50.862;6.220;2023-07-28T13:20:38;0.50;;;0.50;;
74904;SDS011;63465;50.862;6.220;2023-07-28T13:23:04;1.10;;;0.60;;
74904;SDS011;63465;50.862;6.220;2023-07-28T13:25:29;0.60;;;0.60;;
74904;SDS011;63465;50.862;6.220;2023-07-28T13:27:54;0.50;;;0.50;;
74904;SDS011;63465;50.862;6.220;2023-07-28T13:30:19;0.60;;;0.60;;
74904;SDS011;63465;50.862;6.220;2023-07-28T13:32:45;1.07;;;0.60;;
74904;SDS011;63465;50.862;6.220;2023-07-28T13:35:10;0.60;;;0.50;;
74904;SDS011;63465;50.862;6.220;2023-07-28T13:37:36;0.50;;;0.50;;
74904;SDS011;63465;50.862;6.220;2023-07-28T13:40:01;0.53;;;0.53;;
74904;SDS011;63465;50.862;6.220;2023-07-28T13:42:27;0.50;;;0.50;;
74904;SDS011;63465;50.862;6.220;2023-07-28T13:44:52;0.60;;;0.57;;
74904;SDS011;63465;50.862;6.220;2023-07-28T13:47:17;0.50;;;0.50;;
74904;SDS011;63465;50.862;6.220;2023-07-28T13:49:42;0.50;;;0.50;;
74904;SDS011;63465;50.862;6.220;2023-07-28T13:52:08;0.60;;;0.60;;
74904;SDS011;63465;50.862;6.220;2023-07-28T13:54:33;0.60;;;0.60;;
74904;SDS011;63465;50.862;6.220;2023-07-28T13:56:58;0.60;;;0.60;;
74904;SDS011;63465;50.862;6.220;2023-07-28T13:59:24;1.10;;;0.80;;
74904;SDS011;63465;50.862;6.220;2023-07-28T14:01:49;1.83;;;0.63;;
74904;SDS011;63465;50.862;6.220;2023-07-28T14:04:15;0.70;;;0.70;;
74904;SDS011;63465;50.862;6.220;2023-07-28T14:06:40;0.60;;;0.60;;
74904;SDS011;63465;50.862;6.220;2023-07-28T14:09:06;0.70;;;0.70;;
74904;SDS011;63465;50.862;6.220;2023-07-28T14:11:31;0.60;;;0.60;;
74904;SDS011;63465;50.862;6.220;2023-07-28T14:13:56;1.17;;;0.60;;
74904;SDS011;63465;50.862;6.220;2023-07-28T14:16:22;0.70;;;0.67;;
74904;SDS011;63465;50.862;6.220;2023-07-28T14:18:47;0.60;;;0.60;;
74904;SDS011;63465;50.862;6.220;2023-07-28T14:21:13;0.70;;;0.70;;
74904;SDS011;63465;50.862;6.220;2023-07-28T14:23:39;0.60;;;0.60;;
74904;SDS011;63465;50.862;6.220;2023-07-28T14:26:04;0.93;;;0.60;;
74904;SDS011;63465;50.862;6.220;2023-07-28T14:28:29;0.80;;;0.80;;
74904;SDS011;63465;50.862;6.220;2023-07-28T14:30:55;0.80;;;0.80;;
74904;SDS011;63465;50.862;6.220;2023-07-28T14:33:20;0.83;;;0.73;;
74904;SDS011;63465;50.862;6.220;2023-07-28T14:35:47;0.80;;;0.70;;
74904;SDS011;63465;50.862;6.220;2023-07-28T14:38:13;0.73;;;0.73;;
74904;SDS011;63465;50.862;6.220;2023-07-28T14:40:39;0.97;;;0.90;;
74904;SDS011;63465;50.862;6.220;2023-07-28T14:43:05;0.80;;;0.80;;
74904;SDS011;63465;50.862;6.220;2023-07-28T14:45:31;1.00;;;0.90;;
74904;SDS011;63465;50.862;6.220;2023-07-28T14:47:56;1.90;;;1.00;;
74904;SDS011;63465;50.862;6.220;2023-07-28T14:50:22;0.83;;;0.83;;
74904;SDS011;63465;50.862;6.220;2023-07-28T14:52:48;0.80;;;0.80;;
74904;SDS011;63465;50.862;6.220;2023-07-28T14:55:13;0.90;;;0.90;;
74904;SDS011;63465;50.862;6.220;2023-07-28T14:57:39;1.00;;;0.90;;
74904;SDS011;63465;50.862;6.220;2023-07-28T15:00:04;1.20;;;1.10;;
74904;SDS011;63465;50.862;6.220;2023-07-28T15:02:30;1.87;;;1.03;;
74904;SDS011;63465;50.862;6.220;2023-07-28T15:04:56;1.40;;;1.30;;